sensor_id;sensor_type;location;lat;lon;timestamp;temperature;humidity
43884;DHT22;29544;52.018;5.810;2022-09-17T00:00:38;20.10;57.50
43884;DHT22;29544;52.018;5.810;2022-09-17T00:03:04;20.10;57.50
43884;DHT22;29544;52.018;5.810;2022-09-17T00:05:30;20.10;57.60
43884;DHT22;29544;52.018;5.810;2022-09-17T00:07:56;20.00;57.50
43884;DHT22;29544;52.018;5.810;2022-09-17T00:10:22;20.00;57.50
43884;DHT22;29544;52.018;5.810;2022-09-17T00:12:49;20.10;57.60
43884;DHT22;29544;52.018;5.810;2022-09-17T00:15:14;20.10;57.60
43884;DHT22;29544;52.018;5.810;2022-09-17T00:17:40;20.10;57.60
43884;DHT22;29544;52.018;5.810;2022-09-17T00:20:07;20.00;57.60
43884;DHT22;29544;52.018;5.810;2022-09-17T00:22:37;20.00;57.60
43884;DHT22;29544;52.018;5.810;2022-09-17T00:25:05;20.00;57.60
43884;DHT22;29544;52.018;5.810;2022-09-17T00:27:31;20.00;57.60
43884;DHT22;29544;52.018;5.810;2022-09-17T00:29:56;20.00;57.60
43884;DHT22;29544;52.018;5.810;2022-09-17T00:32:22;20.00;57.70
43884;DHT22;29544;52.018;5.810;2022-09-17T00:34:49;19.90;57.60
43884;DHT22;29544;52.018;5.810;2022-09-17T00:37:17;20.00;57.70
43884;DHT22;29544;52.018;5.810;2022-09-17T00:39:42;19.90;57.60
43884;DHT22;29544;52.018;5.810;2022-09-17T00:42:10;19.90;57.60
43884;DHT22;29544;52.018;5.810;2022-09-17T00:44:50;19.90;57.70
43884;DHT22;29544;52.018;5.810;2022-09-17T00:47:20;19.90;57.70
43884;DHT22;29544;52.018;5.810;2022-09-17T00:49:48;20.00;57.80
43884;DHT22;29544;52.018;5.810;2022-09-17T00:52:26;19.90;57.70
43884;DHT22;29544;52.018;5.810;2022-09-17T00:55:02;19.90;57.80
43884;DHT22;29544;52.018;5.810;2022-09-17T00:57:29;19.90;57.80
43884;DHT22;29544;52.018;5.810;2022-09-17T00:59:55;20.00;57.80
43884;DHT22;29544;52.018;5.810;2022-09-17T01:02:21;19.90;57.80
43884;DHT22;29544;52.018;5.810;2022-09-17T01:04:47;19.80;57.80
43884;DHT22;29544;52.018;5.810;2022-09-17T01:07:33;19.80;57.90
43884;DHT22;29544;52.018;5.810;2022-09-17T01:10:30;19.80;57.90
43884;DHT22;29544;52.018;5.810;2022-09-17T01:19:22;19.80;58.00
43884;DHT22;29544;52.018;5.810;2022-09-17T01:22:09;19.80;58.00
43884;DHT22;29544;52.018;5.810;2022-09-17T01:36:19;19.80;58.10
43884;DHT22;29544;52.018;5.810;2022-09-17T01:39:02;19.70;58.10
43884;DHT22;29544;52.018;5.810;2022-09-17T01:44:59;19.70;58.10
43884;DHT22;29544;52.018;5.810;2022-09-17T01:47:33;19.70;58.10
43884;DHT22;29544;52.018;5.810;2022-09-17T01:50:07;19.70;58.10
43884;DHT22;29544;52.018;5.810;2022-09-17T01:52:36;19.70;58.20
43884;DHT22;29544;52.018;5.810;2022-09-17T01:55:14;19.70;58.20
43884;DHT22;29544;52.018;5.810;2022-09-17T01:57:53;19.70;58.20
43884;DHT22;29544;52.018;5.810;2022-09-17T02:00:20;19.70;58.20
43884;DHT22;29544;52.018;5.810;2022-09-17T02:02:59;19.70;58.20
43884;DHT22;29544;52.018;5.810;2022-09-17T02:05:28;19.70;58.20
43884;DHT22;29544;52.018;5.810;2022-09-17T02:07:57;19.70;58.30
43884;DHT22;29544;52.018;5.810;2022-09-17T02:10:30;19.70;58.30
43884;DHT22;29544;52.018;5.810;2022-09-17T02:13:09;19.60;58.20
43884;DHT22;29544;52.018;5.810;2022-09-17T02:15:45;19.60;58.20
43884;DHT22;29544;52.018;5.810;2022-09-17T02:18:38;19.60;58.20
43884;DHT22;29544;52.018;5.810;2022-09-17T02:21:17;19.60;58.20
43884;DHT22;29544;52.018;5.810;2022-09-17T02:24:07;19.60;58.30
43884;DHT22;29544;52.018;5.810;2022-09-17T02:26:39;19.60;58.30
43884;DHT22;29544;52.018;5.810;2022-09-17T02:29:20;19.60;58.30
43884;DHT22;29544;52.018;5.810;2022-09-17T02:31:48;19.60;58.30
43884;DHT22;29544;52.018;5.810;2022-09-17T02:34:13;19.60;58.30
43884;DHT22;29544;52.018;5.810;2022-09-17T02:36:39;19.60;58.40
43884;DHT22;29544;52.018;5.810;2022-09-17T02:39:05;19.60;58.30
43884;DHT22;29544;52.018;5.810;2022-09-17T02:44:31;19.50;58.30
43884;DHT22;29544;52.018;5.810;2022-09-17T02:50:05;19.50;58.30
43884;DHT22;29544;52.018;5.810;2022-09-17T02:52:57;19.50;58.40
43884;DHT22;29544;52.018;5.810;2022-09-17T02:58:43;19.50;58.40
43884;DHT22;29544;52.018;5.810;2022-09-17T03:01:17;19.50;58.40
43884;DHT22;29544;52.018;5.810;2022-09-17T03:03:45;19.50;58.40
43884;DHT22;29544;52.018;5.810;2022-09-17T03:06:12;19.50;58.40
43884;DHT22;29544;52.018;5.810;2022-09-17T03:08:40;19.50;58.40
43884;DHT22;29544;52.018;5.810;2022-09-17T03:11:07;19.50;58.40
43884;DHT22;29544;52.018;5.810;2022-09-17T03:13:34;19.40;58.40
43884;DHT22;29544;52.018;5.810;2022-09-17T03:16:02;19.40;58.40
43884;DHT22;29544;52.018;5.810;2022-09-17T03:18:27;19.40;58.30
43884;DHT22;29544;52.018;5.810;2022-09-17T03:20:53;19.40;58.40
43884;DHT22;29544;52.018;5.810;2022-09-17T03:23:18;19.40;58.40
43884;DHT22;29544;52.018;5.810;2022-09-17T03:25:45;19.40;58.40
43884;DHT22;29544;52.018;5.810;2022-09-17T03:28:10;19.40;58.40
43884;DHT22;29544;52.018;5.810;2022-09-17T03:30:36;19.40;58.40
43884;DHT22;29544;52.018;5.810;2022-09-17T03:33:02;19.40;58.40
43884;DHT22;29544;52.018;5.810;2022-09-17T03:35:27;19.30;58.40
43884;DHT22;29544;52.018;5.810;2022-09-17T03:37:53;19.40;58.50
43884;DHT22;29544;52.018;5.810;2022-09-17T03:40:18;19.40;58.40
43884;DHT22;29544;52.018;5.810;2022-09-17T03:42:44;19.40;58.40
43884;DHT22;29544;52.018;5.810;2022-09-17T03:45:10;19.40;59.10
43884;DHT22;29544;52.018;5.810;2022-09-17T03:47:36;19.30;58.40
43884;DHT22;29544;52.018;5.810;2022-09-17T03:50:02;19.30;58.40
43884;DHT22;29544;52.018;5.810;2022-09-17T03:52:28;19.30;58.40
43884;DHT22;29544;52.018;5.810;2022-09-17T03:54:53;19.30;58.40
43884;DHT22;29544;52.018;5.810;2022-09-17T03:57:19;19.30;58.40
43884;DHT22;29544;52.018;5.810;2022-09-17T03:59:44;19.30;58.40
43884;DHT22;29544;52.018;5.810;2022-09-17T04:02:10;19.30;58.40
43884;DHT22;29544;52.018;5.810;2022-09-17T04:04:35;19.40;58.50
43884;DHT22;29544;52.018;5.810;2022-09-17T04:07:01;19.30;58.40
43884;DHT22;29544;52.018;5.810;2022-09-17T04:09:26;19.30;58.40
43884;DHT22;29544;52.018;5.810;2022-09-17T04:11:52;19.30;58.50
43884;DHT22;29544;52.018;5.810;2022-09-17T04:14:17;19.30;58.50
43884;DHT22;29544;52.018;5.810;2022-09-17T04:16:43;19.20;58.50
43884;DHT22;29544;52.018;5.810;2022-09-17T04:19:08;19.30;58.50
43884;DHT22;29544;52.018;5.810;2022-09-17T04:21:34;19.20;58.40
43884;DHT22;29544;52.018;5.810;2022-09-17T04:23:59;19.20;58.40
43884;DHT22;29544;52.018;5.810;2022-09-17T04:26:25;19.30;58.50
43884;DHT22;29544;52.018;5.810;2022-09-17T04:28:51;19.20;58.50
43884;DHT22;29544;52.018;5.810;2022-09-17T04:31:16;19.20;58.50
43884;DHT22;29544;52.018;5.810;2022-09-17T04:33:42;19.20;58.50
43884;DHT22;29544;52.018;5.810;2022-09-17T04:36:07;19.10;58.40
43884;DHT22;29544;52.018;5.810;2022-09-17T04:38:33;19.20;58.50
43884;DHT22;29544;52.018;5.810;2022-09-17T04:40:59;19.20;58.50
43884;DHT22;29544;52.018;5.810;2022-09-17T04:43:25;19.20;58.50
43884;DHT22;29544;52.018;5.810;2022-09-17T04:45:50;19.10;58.40
43884;DHT22;29544;52.018;5.810;2022-09-17T04:48:16;19.20;58.50
43884;DHT22;29544;52.018;5.810;2022-09-17T04:50:42;19.20;58.50
43884;DHT22;29544;52.018;5.810;2022-09-17T04:53:08;19.10;58.50
43884;DHT22;29544;52.018;5.810;2022-09-17T04:55:34;19.10;58.50
43884;DHT22;29544;52.018;5.810;2022-09-17T04:57:59;19.00;58.40
43884;DHT22;29544;52.018;5.810;2022-09-17T05:00:25;19.10;58.50
43884;DHT22;29544;52.018;5.810;2022-09-17T05:02:53;19.10;58.50
43884;DHT22;29544;52.018;5.810;2022-09-17T05:05:19;19.10;58.50
43884;DHT22;29544;52.018;5.810;2022-09-17T05:07:45;19.10;58.50
43884;DHT22;29544;52.018;5.810;2022-09-17T05:10:12;19.10;58.50
43884;DHT22;29544;52.018;5.810;2022-09-17T05:12:38;19.00;58.50
43884;DHT22;29544;52.018;5.810;2022-09-17T05:15:04;19.00;58.50
43884;DHT22;29544;52.018;5.810;2022-09-17T05:17:30;19.00;58.40
43884;DHT22;29544;52.018;5.810;2022-09-17T05:19:56;19.00;58.50
43884;DHT22;29544;52.018;5.810;2022-09-17T05:22:22;19.10;58.50
43884;DHT22;29544;52.018;5.810;2022-09-17T05:24:47;19.00;58.50
43884;DHT22;29544;52.018;5.810;2022-09-17T05:27:13;19.00;58.50
43884;DHT22;29544;52.018;5.810;2022-09-17T05:29:38;19.00;58.50
43884;DHT22;29544;52.018;5.810;2022-09-17T05:32:04;19.00;58.50
43884;DHT22;29544;52.018;5.810;2022-09-17T05:34:30;19.00;58.50
43884;DHT22;29544;52.018;5.810;2022-09-17T05:36:56;19.00;58.50
43884;DHT22;29544;52.018;5.810;2022-09-17T05:39:21;19.00;58.60
43884;DHT22;29544;52.018;5.810;2022-09-17T05:41:50;19.00;58.50
43884;DHT22;29544;52.018;5.810;2022-09-17T05:44:16;19.00;58.50
43884;DHT22;29544;52.018;5.810;2022-09-17T05:46:42;19.00;58.50
43884;DHT22;29544;52.018;5.810;2022-09-17T05:49:08;19.00;58.50
43884;DHT22;29544;52.018;5.810;2022-09-17T05:51:34;19.00;58.50
43884;DHT22;29544;52.018;5.810;2022-09-17T05:53:59;19.00;58.50
43884;DHT22;29544;52.018;5.810;2022-09-17T05:56:25;18.90;58.50
43884;DHT22;29544;52.018;5.810;2022-09-17T05:58:54;18.90;58.50
43884;DHT22;29544;52.018;5.810;2022-09-17T06:01:21;18.90;58.50
43884;DHT22;29544;52.018;5.810;2022-09-17T06:03:46;18.90;58.50
43884;DHT22;29544;52.018;5.810;2022-09-17T06:06:12;18.90;58.60
43884;DHT22;29544;52.018;5.810;2022-09-17T06:08:37;18.90;58.60
43884;DHT22;29544;52.018;5.810;2022-09-17T06:11:07;18.90;58.60
43884;DHT22;29544;52.018;5.810;2022-09-17T06:13:33;18.90;58.60
43884;DHT22;29544;52.018;5.810;2022-09-17T06:16:00;18.90;58.60
43884;DHT22;29544;52.018;5.810;2022-09-17T06:18:29;18.90;58.60
43884;DHT22;29544;52.018;5.810;2022-09-17T06:20:57;18.90;58.60
43884;DHT22;29544;52.018;5.810;2022-09-17T06:23:23;18.80;58.50
43884;DHT22;29544;52.018;5.810;2022-09-17T06:25:53;18.80;58.50
43884;DHT22;29544;52.018;5.810;2022-09-17T06:28:19;18.80;58.50
43884;DHT22;29544;52.018;5.810;2022-09-17T06:30:45;18.80;58.60
43884;DHT22;29544;52.018;5.810;2022-09-17T06:33:11;18.90;58.60
43884;DHT22;29544;52.018;5.810;2022-09-17T06:35:37;18.80;58.60
43884;DHT22;29544;52.018;5.810;2022-09-17T06:38:03;18.80;58.50
43884;DHT22;29544;52.018;5.810;2022-09-17T06:40:29;18.80;58.50
43884;DHT22;29544;52.018;5.810;2022-09-17T06:42:58;18.80;58.50
43884;DHT22;29544;52.018;5.810;2022-09-17T06:45:25;18.80;58.50
43884;DHT22;29544;52.018;5.810;2022-09-17T06:47:50;18.80;58.50
43884;DHT22;29544;52.018;5.810;2022-09-17T06:50:16;18.80;58.50
43884;DHT22;29544;52.018;5.810;2022-09-17T06:52:52;18.80;58.50
43884;DHT22;29544;52.018;5.810;2022-09-17T06:55:19;18.80;58.60
43884;DHT22;29544;52.018;5.810;2022-09-17T06:57:45;18.80;58.60
43884;DHT22;29544;52.018;5.810;2022-09-17T07:00:12;18.80;58.60
43884;DHT22;29544;52.018;5.810;2022-09-17T07:02:37;18.70;58.60
43884;DHT22;29544;52.018;5.810;2022-09-17T07:05:03;18.80;58.60
43884;DHT22;29544;52.018;5.810;2022-09-17T07:07:30;18.70;58.70
43884;DHT22;29544;52.018;5.810;2022-09-17T07:09:55;18.80;58.70
43884;DHT22;29544;52.018;5.810;2022-09-17T07:12:21;18.80;58.80
43884;DHT22;29544;52.018;5.810;2022-09-17T07:14:47;18.80;58.80
43884;DHT22;29544;52.018;5.810;2022-09-17T07:17:13;18.80;58.80
43884;DHT22;29544;52.018;5.810;2022-09-17T07:19:39;18.80;58.80
43884;DHT22;29544;52.018;5.810;2022-09-17T07:22:05;18.80;58.80
43884;DHT22;29544;52.018;5.810;2022-09-17T07:24:32;18.80;58.80
43884;DHT22;29544;52.018;5.810;2022-09-17T07:26:57;18.80;58.80
43884;DHT22;29544;52.018;5.810;2022-09-17T07:29:23;18.80;58.90
43884;DHT22;29544;52.018;5.810;2022-09-17T07:31:54;18.70;58.80
43884;DHT22;29544;52.018;5.810;2022-09-17T07:34:20;18.80;58.90
43884;DHT22;29544;52.018;5.810;2022-09-17T07:36:46;18.70;58.80
43884;DHT22;29544;52.018;5.810;2022-09-17T07:39:11;18.80;58.90
43884;DHT22;29544;52.018;5.810;2022-09-17T07:41:38;18.80;58.90
43884;DHT22;29544;52.018;5.810;2022-09-17T07:44:04;18.80;58.90
43884;DHT22;29544;52.018;5.810;2022-09-17T07:46:31;18.80;58.90
43884;DHT22;29544;52.018;5.810;2022-09-17T07:48:57;18.80;58.90
43884;DHT22;29544;52.018;5.810;2022-09-17T07:51:24;18.80;58.90
43884;DHT22;29544;52.018;5.810;2022-09-17T07:53:54;18.70;59.00
43884;DHT22;29544;52.018;5.810;2022-09-17T07:56:21;18.80;59.30
43884;DHT22;29544;52.018;5.810;2022-09-17T07:58:47;18.80;59.40
43884;DHT22;29544;52.018;5.810;2022-09-17T08:01:14;18.80;59.50
43884;DHT22;29544;52.018;5.810;2022-09-17T08:03:41;18.80;59.60
43884;DHT22;29544;52.018;5.810;2022-09-17T08:06:10;18.80;59.60
43884;DHT22;29544;52.018;5.810;2022-09-17T08:08:36;18.80;59.70
43884;DHT22;29544;52.018;5.810;2022-09-17T08:11:04;18.80;59.70
43884;DHT22;29544;52.018;5.810;2022-09-17T08:13:30;18.80;59.70
43884;DHT22;29544;52.018;5.810;2022-09-17T08:16:04;18.80;59.80
43884;DHT22;29544;52.018;5.810;2022-09-17T08:18:31;18.80;60.40
43884;DHT22;29544;52.018;5.810;2022-09-17T08:21:01;18.80;59.80
43884;DHT22;29544;52.018;5.810;2022-09-17T08:23:27;18.80;59.80
43884;DHT22;29544;52.018;5.810;2022-09-17T08:25:58;18.80;59.80
43884;DHT22;29544;52.018;5.810;2022-09-17T08:28:27;18.90;59.90
43884;DHT22;29544;52.018;5.810;2022-09-17T08:30:54;18.80;59.80
43884;DHT22;29544;52.018;5.810;2022-09-17T08:33:24;18.80;59.80
43884;DHT22;29544;52.018;5.810;2022-09-17T08:35:53;18.80;59.80
43884;DHT22;29544;52.018;5.810;2022-09-17T08:38:19;18.80;59.80
43884;DHT22;29544;52.018;5.810;2022-09-17T08:43:24;18.80;59.70
43884;DHT22;29544;52.018;5.810;2022-09-17T08:45:53;18.80;60.00
43884;DHT22;29544;52.018;5.810;2022-09-17T08:48:19;18.90;59.80
43884;DHT22;29544;52.018;5.810;2022-09-17T08:50:45;18.90;59.80
43884;DHT22;29544;52.018;5.810;2022-09-17T08:56:01;18.90;59.60
43884;DHT22;29544;52.018;5.810;2022-09-17T08:58:32;18.90;59.60
43884;DHT22;29544;52.018;5.810;2022-09-17T09:01:08;18.90;59.60
43884;DHT22;29544;52.018;5.810;2022-09-17T09:06:07;18.90;59.50
43884;DHT22;29544;52.018;5.810;2022-09-17T09:08:34;18.90;59.50
43884;DHT22;29544;52.018;5.810;2022-09-17T09:11:06;18.90;59.50
43884;DHT22;29544;52.018;5.810;2022-09-17T09:13:40;18.90;59.50
43884;DHT22;29544;52.018;5.810;2022-09-17T09:16:29;18.90;59.40
43884;DHT22;29544;52.018;5.810;2022-09-17T09:19:03;18.90;59.40
43884;DHT22;29544;52.018;5.810;2022-09-17T09:21:38;18.90;59.30
43884;DHT22;29544;52.018;5.810;2022-09-17T09:24:23;19.00;59.30
43884;DHT22;29544;52.018;5.810;2022-09-17T09:27:27;19.00;59.30
43884;DHT22;29544;52.018;5.810;2022-09-17T09:30:10;19.00;59.20
43884;DHT22;29544;52.018;5.810;2022-09-17T09:35:26;19.00;59.10
43884;DHT22;29544;52.018;5.810;2022-09-17T09:38:00;19.00;59.10
43884;DHT22;29544;52.018;5.810;2022-09-17T09:40:45;19.10;59.20
43884;DHT22;29544;52.018;5.810;2022-09-17T09:43:33;19.10;59.20
43884;DHT22;29544;52.018;5.810;2022-09-17T09:51:39;19.10;59.20
43884;DHT22;29544;52.018;5.810;2022-09-17T09:56:58;19.10;59.10
43884;DHT22;29544;52.018;5.810;2022-09-17T09:59:27;19.10;59.10
43884;DHT22;29544;52.018;5.810;2022-09-17T10:01:53;19.10;59.10
43884;DHT22;29544;52.018;5.810;2022-09-17T10:04:24;19.10;59.10
43884;DHT22;29544;52.018;5.810;2022-09-17T10:07:02;19.10;59.00
43884;DHT22;29544;52.018;5.810;2022-09-17T10:09:29;19.20;59.10
43884;DHT22;29544;52.018;5.810;2022-09-17T10:14:35;19.20;59.00
43884;DHT22;29544;52.018;5.810;2022-09-17T10:22:35;19.20;58.90
43884;DHT22;29544;52.018;5.810;2022-09-17T10:25:04;19.20;59.00
43884;DHT22;29544;52.018;5.810;2022-09-17T10:27:30;19.20;59.10
43884;DHT22;29544;52.018;5.810;2022-09-17T10:32:28;19.30;59.10
43884;DHT22;29544;52.018;5.810;2022-09-17T10:42:46;19.30;59.00
43884;DHT22;29544;52.018;5.810;2022-09-17T10:45:39;19.30;59.10
43884;DHT22;29544;52.018;5.810;2022-09-17T10:48:15;19.30;59.20
43884;DHT22;29544;52.018;5.810;2022-09-17T10:50:53;19.30;59.20
43884;DHT22;29544;52.018;5.810;2022-09-17T10:53:20;19.40;59.20
43884;DHT22;29544;52.018;5.810;2022-09-17T11:04:28;19.50;59.20
43884;DHT22;29544;52.018;5.810;2022-09-17T11:10:19;19.50;59.10
43884;DHT22;29544;52.018;5.810;2022-09-17T11:12:58;19.50;59.20
43884;DHT22;29544;52.018;5.810;2022-09-17T11:21:27;19.60;59.10
43884;DHT22;29544;52.018;5.810;2022-09-17T11:24:26;19.70;59.10
43884;DHT22;29544;52.018;5.810;2022-09-17T11:30:09;19.70;59.10
43884;DHT22;29544;52.018;5.810;2022-09-17T11:38:26;19.90;59.10
43884;DHT22;29544;52.018;5.810;2022-09-17T11:44:07;19.90;59.00
43884;DHT22;29544;52.018;5.810;2022-09-17T11:46:24;20.00;59.10
43884;DHT22;29544;52.018;5.810;2022-09-17T11:48:57;20.00;59.00
43884;DHT22;29544;52.018;5.810;2022-09-17T11:51:30;20.00;59.00
43884;DHT22;29544;52.018;5.810;2022-09-17T11:54:18;20.00;59.00
43884;DHT22;29544;52.018;5.810;2022-09-17T11:57:17;20.10;58.90
43884;DHT22;29544;52.018;5.810;2022-09-17T12:05:03;20.10;58.70
43884;DHT22;29544;52.018;5.810;2022-09-17T12:07:44;20.10;58.60
43884;DHT22;29544;52.018;5.810;2022-09-17T12:12:44;20.10;58.50
43884;DHT22;29544;52.018;5.810;2022-09-17T12:15:23;20.10;58.50
43884;DHT22;29544;52.018;5.810;2022-09-17T12:20:26;20.10;58.40
43884;DHT22;29544;52.018;5.810;2022-09-17T12:23:08;20.10;58.40
43884;DHT22;29544;52.018;5.810;2022-09-17T12:25:42;20.20;58.40
43884;DHT22;29544;52.018;5.810;2022-09-17T12:28:20;20.20;58.40
43884;DHT22;29544;52.018;5.810;2022-09-17T12:32:15;20.20;58.40
43884;DHT22;29544;52.018;5.810;2022-09-17T12:34:28;20.30;58.40
43884;DHT22;29544;52.018;5.810;2022-09-17T12:40:17;20.30;58.30
43884;DHT22;29544;52.018;5.810;2022-09-17T12:43:08;20.30;58.30
43884;DHT22;29544;52.018;5.810;2022-09-17T12:45:47;20.30;58.30
43884;DHT22;29544;52.018;5.810;2022-09-17T12:48:21;20.30;58.40
43884;DHT22;29544;52.018;5.810;2022-09-17T12:53:46;20.30;58.10
43884;DHT22;29544;52.018;5.810;2022-09-17T12:59:17;20.40;58.20
43884;DHT22;29544;52.018;5.810;2022-09-17T13:12:20;20.70;58.20
43884;DHT22;29544;52.018;5.810;2022-09-17T13:18:14;20.70;58.30
43884;DHT22;29544;52.018;5.810;2022-09-17T13:23:32;20.70;58.30
43884;DHT22;29544;52.018;5.810;2022-09-17T13:26:00;20.80;58.30
43884;DHT22;29544;52.018;5.810;2022-09-17T13:28:38;20.70;58.20
43884;DHT22;29544;52.018;5.810;2022-09-17T13:31:03;20.80;58.20
43884;DHT22;29544;52.018;5.810;2022-09-17T13:33:49;20.80;58.20
43884;DHT22;29544;52.018;5.810;2022-09-17T13:36:41;20.70;58.10
43884;DHT22;29544;52.018;5.810;2022-09-17T13:39:10;20.70;58.00
43884;DHT22;29544;52.018;5.810;2022-09-17T13:41:39;20.80;58.00
43884;DHT22;29544;52.018;5.810;2022-09-17T13:44:06;20.70;57.90
43884;DHT22;29544;52.018;5.810;2022-09-17T13:46:33;20.70;57.90
43884;DHT22;29544;52.018;5.810;2022-09-17T13:49:02;20.80;57.90
43884;DHT22;29544;52.018;5.810;2022-09-17T13:53:57;20.80;57.80
43884;DHT22;29544;52.018;5.810;2022-09-17T13:56:36;20.80;57.70
43884;DHT22;29544;52.018;5.810;2022-09-17T13:59:11;20.80;57.70
43884;DHT22;29544;52.018;5.810;2022-09-17T14:04:48;20.80;57.80
43884;DHT22;29544;52.018;5.810;2022-09-17T14:12:59;20.80;57.70
43884;DHT22;29544;52.018;5.810;2022-09-17T14:15:53;20.80;57.70
43884;DHT22;29544;52.018;5.810;2022-09-17T14:21:05;20.80;57.80
43884;DHT22;29544;52.018;5.810;2022-09-17T14:23:32;20.80;57.80
43884;DHT22;29544;52.018;5.810;2022-09-17T14:25:58;20.80;57.70
43884;DHT22;29544;52.018;5.810;2022-09-17T14:31:29;20.90;57.80
43884;DHT22;29544;52.018;5.810;2022-09-17T14:33:56;20.90;57.90
43884;DHT22;29544;52.018;5.810;2022-09-17T14:36:22;20.90;57.90
43884;DHT22;29544;52.018;5.810;2022-09-17T14:38:50;20.90;57.90
43884;DHT22;29544;52.018;5.810;2022-09-17T14:41:23;20.90;57.90
43884;DHT22;29544;52.018;5.810;2022-09-17T14:48:46;20.90;57.80
43884;DHT22;29544;52.018;5.810;2022-09-17T14:53:49;20.90;57.60
43884;DHT22;29544;52.018;5.810;2022-09-17T14:56:32;20.90;57.80
43884;DHT22;29544;52.018;5.810;2022-09-17T14:58:58;20.90;57.90
43884;DHT22;29544;52.018;5.810;2022-09-17T15:01:31;21.00;58.00
43884;DHT22;29544;52.018;5.810;2022-09-17T15:06:38;21.00;58.00
43884;DHT22;29544;52.018;5.810;2022-09-17T15:09:04;21.10;58.00
43884;DHT22;29544;52.018;5.810;2022-09-17T15:11:34;21.10;58.00
43884;DHT22;29544;52.018;5.810;2022-09-17T15:14:06;21.10;57.90
43884;DHT22;29544;52.018;5.810;2022-09-17T15:16:32;21.10;57.80
43884;DHT22;29544;52.018;5.810;2022-09-17T15:19:02;21.10;57.60
43884;DHT22;29544;52.018;5.810;2022-09-17T15:21:46;21.20;57.40
43884;DHT22;29544;52.018;5.810;2022-09-17T15:24:33;21.10;57.40
43884;DHT22;29544;52.018;5.810;2022-09-17T15:27:08;21.20;57.50
43884;DHT22;29544;52.018;5.810;2022-09-17T15:29:36;21.20;57.30
43884;DHT22;29544;52.018;5.810;2022-09-17T15:32:04;21.20;57.10
43884;DHT22;29544;52.018;5.810;2022-09-17T15:34:30;21.20;56.80
43884;DHT22;29544;52.018;5.810;2022-09-17T15:37:15;21.20;56.60
43884;DHT22;29544;52.018;5.810;2022-09-17T15:39:42;21.20;56.60
43884;DHT22;29544;52.018;5.810;2022-09-17T15:42:37;21.10;56.40
43884;DHT22;29544;52.018;5.810;2022-09-17T15:45:17;21.10;56.40
43884;DHT22;29544;52.018;5.810;2022-09-17T15:47:54;21.20;56.40
43884;DHT22;29544;52.018;5.810;2022-09-17T15:50:28;21.10;56.40
43884;DHT22;29544;52.018;5.810;2022-09-17T15:55:31;21.10;56.40
43884;DHT22;29544;52.018;5.810;2022-09-17T15:58:00;21.00;56.30
43884;DHT22;29544;52.018;5.810;2022-09-17T16:00:26;21.00;56.30
43884;DHT22;29544;52.018;5.810;2022-09-17T16:02:53;21.00;56.30
43884;DHT22;29544;52.018;5.810;2022-09-17T16:07:50;21.00;56.30
43884;DHT22;29544;52.018;5.810;2022-09-17T16:10:16;21.00;56.30
43884;DHT22;29544;52.018;5.810;2022-09-17T16:12:42;21.00;56.30
43884;DHT22;29544;52.018;5.810;2022-09-17T16:15:08;20.90;56.30
43884;DHT22;29544;52.018;5.810;2022-09-17T16:17:42;20.90;56.20
43884;DHT22;29544;52.018;5.810;2022-09-17T16:22:39;20.80;56.20
43884;DHT22;29544;52.018;5.810;2022-09-17T16:25:05;20.90;56.30
43884;DHT22;29544;52.018;5.810;2022-09-17T16:27:37;20.90;56.30
43884;DHT22;29544;52.018;5.810;2022-09-17T16:30:06;20.80;56.20
43884;DHT22;29544;52.018;5.810;2022-09-17T16:32:34;20.80;56.30
43884;DHT22;29544;52.018;5.810;2022-09-17T16:34:59;20.80;56.30
43884;DHT22;29544;52.018;5.810;2022-09-17T16:40:49;20.80;56.50
43884;DHT22;29544;52.018;5.810;2022-09-17T16:43:17;20.70;56.50
43884;DHT22;29544;52.018;5.810;2022-09-17T16:46:03;20.70;56.60
43884;DHT22;29544;52.018;5.810;2022-09-17T16:48:28;20.70;56.70
43884;DHT22;29544;52.018;5.810;2022-09-17T16:50:54;20.70;56.80
43884;DHT22;29544;52.018;5.810;2022-09-17T16:53:20;20.70;56.90
43884;DHT22;29544;52.018;5.810;2022-09-17T16:55:46;20.60;56.80
43884;DHT22;29544;52.018;5.810;2022-09-17T16:58:12;20.70;56.90
43884;DHT22;29544;52.018;5.810;2022-09-17T17:00:40;20.70;56.90
43884;DHT22;29544;52.018;5.810;2022-09-17T17:03:06;20.70;56.90
43884;DHT22;29544;52.018;5.810;2022-09-17T17:05:35;20.60;56.80
43884;DHT22;29544;52.018;5.810;2022-09-17T17:08:01;20.60;56.80
43884;DHT22;29544;52.018;5.810;2022-09-17T17:10:26;20.60;56.80
43884;DHT22;29544;52.018;5.810;2022-09-17T17:12:52;20.60;56.80
43884;DHT22;29544;52.018;5.810;2022-09-17T17:15:17;20.60;56.80
43884;DHT22;29544;52.018;5.810;2022-09-17T17:17:44;20.60;56.80
43884;DHT22;29544;52.018;5.810;2022-09-17T17:20:09;20.50;56.70
43884;DHT22;29544;52.018;5.810;2022-09-17T17:22:38;20.50;56.70
43884;DHT22;29544;52.018;5.810;2022-09-17T17:25:04;20.50;56.70
43884;DHT22;29544;52.018;5.810;2022-09-17T17:27:30;20.50;56.70
43884;DHT22;29544;52.018;5.810;2022-09-17T17:29:56;20.50;56.70
43884;DHT22;29544;52.018;5.810;2022-09-17T17:32:22;20.50;56.70
43884;DHT22;29544;52.018;5.810;2022-09-17T17:34:53;20.40;56.70
43884;DHT22;29544;52.018;5.810;2022-09-17T17:37:18;20.50;56.70
43884;DHT22;29544;52.018;5.810;2022-09-17T17:39:46;20.40;56.70
43884;DHT22;29544;52.018;5.810;2022-09-17T17:42:11;20.40;56.70
43884;DHT22;29544;52.018;5.810;2022-09-17T17:44:37;20.50;56.90
43884;DHT22;29544;52.018;5.810;2022-09-17T17:47:02;20.40;56.80
43884;DHT22;29544;52.018;5.810;2022-09-17T17:49:28;20.40;56.80
43884;DHT22;29544;52.018;5.810;2022-09-17T17:51:54;20.40;56.80
43884;DHT22;29544;52.018;5.810;2022-09-17T17:54:19;20.40;56.80
43884;DHT22;29544;52.018;5.810;2022-09-17T17:56:46;20.40;56.80
43884;DHT22;29544;52.018;5.810;2022-09-17T17:59:11;20.40;56.80
43884;DHT22;29544;52.018;5.810;2022-09-17T18:01:37;20.40;56.80
43884;DHT22;29544;52.018;5.810;2022-09-17T18:04:04;20.40;57.00
43884;DHT22;29544;52.018;5.810;2022-09-17T18:06:32;20.40;57.00
43884;DHT22;29544;52.018;5.810;2022-09-17T18:08:59;20.40;57.10
43884;DHT22;29544;52.018;5.810;2022-09-17T18:11:24;20.40;57.20
43884;DHT22;29544;52.018;5.810;2022-09-17T18:13:52;20.40;57.80
43884;DHT22;29544;52.018;5.810;2022-09-17T18:16:18;20.30;57.20
43884;DHT22;29544;52.018;5.810;2022-09-17T18:18:45;20.30;57.30
43884;DHT22;29544;52.018;5.810;2022-09-17T18:21:13;20.40;57.40
43884;DHT22;29544;52.018;5.810;2022-09-17T18:23:40;20.30;57.40
43884;DHT22;29544;52.018;5.810;2022-09-17T18:26:09;20.30;57.40
43884;DHT22;29544;52.018;5.810;2022-09-17T18:28:35;20.30;57.50
43884;DHT22;29544;52.018;5.810;2022-09-17T18:31:06;20.40;57.50
43884;DHT22;29544;52.018;5.810;2022-09-17T18:33:32;20.40;57.60
43884;DHT22;29544;52.018;5.810;2022-09-17T18:36:05;20.30;57.60
43884;DHT22;29544;52.018;5.810;2022-09-17T18:38:31;20.30;57.60